Time;durP1;ratioP1;P1;durP2;ratioP2;P2;SDS_P1;SDS_P2;PMS_P1;PMS_P2;Temp;Humidity;BMP_temperature;BMP_pressure;BME280_temperature;BME280_humidity;BME280_pressure;Samples;Min_cycle;Max_cycle;Signal;HPM_P1;HPM_P2
2022/08/06 00:01:09;;;;;;;2.60;1.17;;;14.00;86.90;;;;;;5011896;28;20453;-61
2022/08/06 00:03:35;;;;;;;5.47;0.75;;;14.00;87.40;;;;;;5010792;28;20121;-57
2022/08/06 00:06:00;;;;;;;3.47;0.98;;;14.00;88.20;;;;;;5018426;28;20104;-57
2022/08/06 00:08:26;;;;;;;1.58;0.82;;;14.00;88.70;;;;;;5015682;28;20478;-58
2022/08/06 00:10:52;;;;;;;1.02;0.80;;;13.90;89.50;;;;;;5019250;28;20034;-57
2022/08/06 00:13:18;;;;;;;1.83;0.70;;;13.90;90.00;;;;;;5013877;28;20367;-58
2022/08/06 00:15:44;;;;;;;2.00;0.60;;;13.90;89.60;;;;;;5013388;28;20049;-58
2022/08/06 00:18:10;;;;;;;1.15;0.60;;;13.90;89.40;;;;;;5006980;28;20513;-58
2022/08/06 00:20:36;;;;;;;1.95;0.68;;;14.00;87.90;;;;;;5014727;28;20068;-58
2022/08/06 00:23:01;;;;;;;2.60;0.52;;;14.10;86.20;;;;;;5012660;28;20071;-58
2022/08/06 00:25:28;;;;;;;2.65;0.77;;;14.20;85.70;;;;;;5014085;28;20038;-58
2022/08/06 00:27:53;;;;;;;2.97;0.70;;;14.20;85.90;;;;;;5015801;28;20029;-58
2022/08/06 00:30:19;;;;;;;1.83;0.60;;;14.30;86.00;;;;;;5017919;28;20058;-58
2022/08/06 00:32:45;;;;;;;2.05;0.40;;;14.30;86.80;;;;;;5013114;28;20516;-58
2022/08/06 00:35:10;;;;;;;3.92;0.60;;;14.30;86.80;;;;;;5015034;28;20029;-57
2022/08/06 00:37:36;;;;;;;2.95;0.70;;;14.20;87.50;;;;;;5012947;28;20141;-57
2022/08/06 00:40:02;;;;;;;0.65;0.60;;;14.10;88.70;;;;;;5013957;28;20164;-57
2022/08/06 00:42:29;;;;;;;0.93;0.60;;;14.20;87.20;;;;;;5011289;28;20022;-57
2022/08/06 00:44:55;;;;;;;1.13;0.52;;;14.20;86.70;;;;;;5013914;28;20061;-57
2022/08/06 00:47:20;;;;;;;2.83;0.80;;;14.30;86.60;;;;;;5011391;28;20481;-57
2022/08/06 00:49:46;;;;;;;1.63;0.70;;;14.30;86.60;;;;;;5021455;28;20416;-57
2022/08/06 00:52:12;;;;;;;4.65;0.80;;;14.30;86.30;;;;;;5020306;28;20032;-57
2022/08/06 00:54:37;;;;;;;2.90;0.52;;;14.30;87.70;;;;;;5014068;28;20034;-57
2022/08/06 00:57:04;;;;;;;3.83;0.95;;;14.30;87.30;;;;;;5012917;28;20096;-57
2022/08/06 00:59:30;;;;;;;2.17;0.80;;;14.30;86.90;;;;;;5014763;28;20018;-57
2022/08/06 01:01:55;;;;;;;1.92;0.68;;;14.30;87.60;;;;;;5013644;28;20030;-57
2022/08/06 01:04:21;;;;;;;2.80;0.65;;;14.30;87.60;;;;;;5010122;28;20022;-57
2022/08/06 01:06:47;;;;;;;1.13;0.63;;;14.30;87.80;;;;;;5011233;28;20038;-57
2022/08/06 01:09:12;;;;;;;1.15;0.70;;;14.30;87.40;;;;;;5018597;28;20025;-57
2022/08/06 01:11:38;;;;;;;2.08;0.68;;;14.30;87.70;;;;;;5010412;28;20137;-57
2022/08/06 01:14:04;;;;;;;3.85;0.70;;;14.30;87.60;;;;;;5016940;28;20029;-57
2022/08/06 01:16:58;;;;;;;1.58;0.73;;;14.30;87.60;;;;;;5021255;28;20174;-58
2022/08/06 01:19:45;;;;;;;3.13;0.77;;;14.30;88.30;;;;;;5018187;28;20030;-57
2022/08/06 01:22:43;;;;;;;1.52;0.90;;;14.30;89.90;;;;;;5021401;28;20486;-57
2022/08/06 01:25:32;;;;;;;1.40;0.50;;;14.30;90.00;;;;;;5010192;28;20046;-57
2022/08/06 01:27:59;;;;;;;2.83;0.50;;;14.20;90.20;;;;;;5017143;28;20021;-57
2022/08/06 01:30:32;;;;;;;2.75;0.75;;;14.20;90.20;;;;;;5013958;28;20088;-57
2022/08/06 01:33:02;;;;;;;5.20;1.65;;;14.10;90.70;;;;;;5010829;28;20030;-57
2022/08/06 01:35:31;;;;;;;1.45;0.57;;;14.10;91.00;;;;;;5004735;28;20036;-58
2022/08/06 01:38:06;;;;;;;1.83;0.63;;;14.10;91.20;;;;;;5012414;28;20425;-59
2022/08/06 01:40:35;;;;;;;4.28;0.90;;;14.00;91.60;;;;;;5005029;28;20036;-58
2022/08/06 01:43:03;;;;;;;1.65;0.73;;;14.00;91.90;;;;;;5012880;28;20373;-57
2022/08/06 01:45:32;;;;;;;2.55;0.73;;;13.90;92.40;;;;;;5004416;28;20044;-58
2022/08/06 01:48:02;;;;;;;2.80;0.90;;;13.80;92.70;;;;;;5009390;28;20029;-57
2022/08/06 01:50:32;;;;;;;5.15;0.68;;;13.80;92.80;;;;;;5011768;28;20033;-57
2022/08/06 01:53:01;;;;;;;1.35;0.50;;;13.80;93.20;;;;;;5014934;28;20539;-58
2022/08/06 01:55:41;;;;;;;4.03;1.15;;;13.90;92.90;;;;;;5002569;28;20034;-58
2022/08/06 01:58:08;;;;;;;4.15;0.80;;;13.90;93.10;;;;;;5013546;28;20017;-58
2022/08/06 02:00:39;;;;;;;3.15;0.80;;;13.80;93.30;;;;;;5017368;28;20478;-57
2022/08/06 02:03:14;;;;;;;2.08;0.50;;;13.80;93.70;;;;;;5006331;28;20018;-58
2022/08/06 02:05:43;;;;;;;4.32;0.98;;;13.70;94.00;;;;;;5000620;28;20056;-58
2022/08/06 02:08:11;;;;;;;3.80;0.95;;;13.80;94.50;;;;;;5009522;28;20133;-59
2022/08/06 02:10:38;;;;;;;3.13;0.75;;;13.80;94.50;;;;;;5007232;28;20033;-58
2022/08/06 02:13:05;;;;;;;3.13;0.68;;;13.80;94.50;;;;;;5006642;28;20429;-56
2022/08/06 02:15:33;;;;;;;1.30;0.40;;;13.70;94.80;;;;;;5003980;28;20109;-56
2022/08/06 02:18:04;;;;;;;1.75;0.57;;;13.70;95.20;;;;;;5010021;28;20120;-57
2022/08/06 02:20:35;;;;;;;3.83;0.60;;;13.70;95.30;;;;;;5008158;28;20040;-57
2022/08/06 02:23:04;;;;;;;2.20;0.57;;;13.70;95.40;;;;;;5003031;28;20152;-59
2022/08/06 02:25:31;;;;;;;2.30;0.50;;;13.60;95.50;;;;;;5011169;28;20042;-58
2022/08/06 02:27:58;;;;;;;1.13;0.50;;;13.60;95.90;;;;;;5010590;28;20025;-58
2022/08/06 02:30:27;;;;;;;1.08;0.80;;;13.60;96.30;;;;;;5009595;28;20033;-58
2022/08/06 02:32:53;;;;;;;3.03;0.40;;;13.60;96.60;;;;;;5014279;28;20339;-58
2022/08/06 02:35:19;;;;;;;2.35;0.50;;;13.60;96.90;;;;;;5011218;28;20496;-58
2022/08/06 02:38:07;;;;;;;2.28;1.00;;;13.60;96.90;;;;;;5012596;28;20112;-58
2022/08/06 02:40:40;;;;;;;0.93;0.40;;;13.60;96.70;;;;;;5007688;28;20401;-58
2022/08/06 02:43:31;;;;;;;1.02;0.40;;;13.50;96.80;;;;;;5009462;28;20394;-58
2022/08/06 02:46:26;;;;;;;3.45;0.50;;;13.50;97.10;;;;;;5012313;28;20041;-58
2022/08/06 02:49:01;;;;;;;1.05;0.60;;;13.50;97.20;;;;;;4996350;28;20137;-58
2022/08/06 02:51:38;;;;;;;3.65;0.70;;;13.50;97.60;;;;;;5006327;28;20060;-56
2022/08/06 02:54:19;;;;;;;1.52;0.75;;;13.50;97.70;;;;;;5009759;28;20034;-56
2022/08/06 02:56:49;;;;;;;1.33;0.40;;;13.50;97.80;;;;;;5008467;28;20037;-57
2022/08/06 02:59:19;;;;;;;1.88;0.55;;;13.50;97.80;;;;;;5012390;28;20327;-57
2022/08/06 03:01:51;;;;;;;4.53;0.43;;;13.40;98.10;;;;;;5007215;28;20453;-58
2022/08/06 03:04:18;;;;;;;2.63;0.60;;;13.40;98.10;;;;;;5014219;28;20022;-57
2022/08/06 03:06:47;;;;;;;1.20;0.75;;;13.50;98.30;;;;;;5006495;28;20050;-57
2022/08/06 03:09:14;;;;;;;1.48;0.55;;;13.40;98.30;;;;;;5013807;28;20025;-57
2022/08/06 03:11:41;;;;;;;1.35;0.40;;;13.40;98.50;;;;;;5009187;28;20050;-57
2022/08/06 03:14:09;;;;;;;8.27;1.92;;;13.40;98.70;;;;;;5013884;28;20021;-57
2022/08/06 03:16:37;;;;;;;1.35;0.57;;;13.40;98.70;;;;;;5015858;28;20026;-57
2022/08/06 03:19:04;;;;;;;1.88;0.52;;;13.30;99.00;;;;;;5012687;28;20441;-57
2022/08/06 03:21:32;;;;;;;2.45;0.55;;;13.30;99.20;;;;;;5011698;28;20069;-58
2022/08/06 03:24:00;;;;;;;0.90;0.40;;;13.30;99.30;;;;;;5014727;28;20025;-58
2022/08/06 03:26:27;;;;;;;2.53;0.55;;;13.20;99.50;;;;;;5014873;28;20119;-58
2022/08/06 03:28:55;;;;;;;1.27;0.50;;;13.20;99.90;;;;;;5010100;28;20045;-58
2022/08/06 03:31:23;;;;;;;2.15;0.73;;;13.30;99.90;;;;;;5017374;28;20076;-58
2022/08/06 03:33:49;;;;;;;5.40;0.80;;;13.20;99.90;;;;;;5015853;28;20084;-58
2022/08/06 03:36:15;;;;;;;1.58;0.70;;;13.20;99.90;;;;;;5012830;28;20538;-58
2022/08/06 03:38:47;;;;;;;3.00;0.73;;;13.20;99.90;;;;;;5003160;28;20034;-58
2022/08/06 03:41:13;;;;;;;1.55;0.82;;;13.20;99.90;;;;;;5005846;28;20097;-58
2022/08/06 03:43:39;;;;;;;3.70;1.00;;;13.20;99.90;;;;;;5001938;28;20088;-58
2022/08/06 03:46:07;;;;;;;3.15;0.75;;;13.20;99.90;;;;;;5011501;28;20034;-58
2022/08/06 03:48:40;;;;;;;2.28;0.80;;;13.20;99.90;;;;;;5005367;28;20049;-58
2022/08/06 03:51:12;;;;;;;1.08;0.73;;;13.20;99.90;;;;;;5010989;28;20035;-58
2022/08/06 03:53:40;;;;;;;2.40;1.10;;;13.20;99.90;;;;;;5005217;28;20410;-58
2022/08/06 03:56:08;;;;;;;1.55;0.63;;;13.20;99.90;;;;;;5011095;28;20034;-57
2022/08/06 03:58:38;;;;;;;3.05;0.90;;;13.20;99.90;;;;;;5009713;28;20087;-58
2022/08/06 04:01:09;;;;;;;1.83;0.85;;;13.20;99.90;;;;;;5014488;28;20087;-59
2022/08/06 04:03:36;;;;;;;2.45;0.80;;;13.10;99.90;;;;;;5004996;28;20076;-59
2022/08/06 04:06:02;;;;;;;2.05;1.00;;;13.10;99.90;;;;;;5011041;28;20069;-58
2022/08/06 04:08:29;;;;;;;2.72;0.73;;;13.10;99.90;;;;;;5011664;28;20521;-58
2022/08/06 04:10:55;;;;;;;2.50;0.60;;;13.10;99.90;;;;;;5018697;28;20087;-58
2022/08/06 04:13:23;;;;;;;1.35;0.90;;;13.10;99.90;;;;;;5012745;28;20030;-58
2022/08/06 04:15:50;;;;;;;2.72;0.60;;;13.00;99.90;;;;;;5005724;28;20042;-58
2022/08/06 04:18:33;;;;;;;1.40;0.75;;;13.10;99.90;;;;;;5015181;28;20026;-58
2022/08/06 04:21:02;;;;;;;2.47;0.98;;;13.00;99.90;;;;;;5005878;28;20041;-57
2022/08/06 04:23:29;;;;;;;1.95;1.00;;;13.00;99.90;;;;;;5004074;28;20021;-58
2022/08/06 04:25:58;;;;;;;3.58;1.67;;;12.90;99.90;;;;;;5016172;28;20042;-58
2022/08/06 04:28:26;;;;;;;2.92;1.00;;;12.90;99.90;;;;;;5017156;28;20029;-57
2022/08/06 04:30:54;;;;;;;1.80;0.90;;;12.90;99.90;;;;;;5008251;28;20026;-57
2022/08/06 04:33:22;;;;;;;2.58;1.10;;;12.90;99.90;;;;;;5012971;28;20022;-58
2022/08/06 04:35:48;;;;;;;2.53;1.58;;;12.90;99.90;;;;;;5019860;28;20034;-57
2022/08/06 04:38:20;;;;;;;3.88;1.33;;;12.80;99.90;;;;;;5012477;28;20037;-58
2022/08/06 04:40:47;;;;;;;3.80;1.42;;;12.80;99.90;;;;;;5013923;28;20466;-58
2022/08/06 04:43:14;;;;;;;2.65;1.60;;;12.70;99.90;;;;;;5013833;28;20064;-58
2022/08/06 04:45:41;;;;;;;2.63;1.88;;;12.70;99.90;;;;;;5007063;28;20502;-58
2022/08/06 04:48:11;;;;;;;1.75;1.40;;;12.70;99.90;;;;;;5008480;28;20068;-57
2022/08/06 04:50:38;;;;;;;2.10;1.08;;;12.70;99.90;;;;;;5004158;28;20080;-58
2022/08/06 04:53:10;;;;;;;6.20;1.70;;;12.70;99.90;;;;;;5016867;28;20077;-58
2022/08/06 04:55:36;;;;;;;2.17;1.40;;;12.70;99.90;;;;;;5019194;28;20030;-57
2022/08/06 04:58:04;;;;;;;3.60;1.40;;;12.70;99.90;;;;;;5007360;28;20121;-57
2022/08/06 05:00:34;;;;;;;6.75;1.70;;;12.70;99.90;;;;;;5005449;28;20038;-58
2022/08/06 05:03:00;;;;;;;3.83;1.40;;;12.70;99.90;;;;;;5015117;28;20044;-60
2022/08/06 05:05:28;;;;;;;5.85;1.70;;;12.70;99.90;;;;;;5014619;28;20434;-57
2022/08/06 05:07:56;;;;;;;3.90;1.38;;;12.70;99.90;;;;;;5005931;28;20038;-57
2022/08/06 05:10:25;;;;;;;1.75;1.27;;;12.60;99.90;;;;;;5003601;28;20028;-57
2022/08/06 05:12:56;;;;;;;3.17;1.83;;;12.60;99.90;;;;;;5009925;28;20065;-57
2022/08/06 05:15:29;;;;;;;3.22;1.90;;;12.60;99.90;;;;;;5001565;28;20080;-57
2022/08/06 05:18:15;;;;;;;2.95;1.80;;;12.60;99.90;;;;;;5005110;28;20034;-57
2022/08/06 05:20:47;;;;;;;3.38;1.73;;;12.60;99.90;;;;;;5007157;28;20104;-57
2022/08/06 05:23:27;;;;;;;3.28;1.77;;;12.70;99.90;;;;;;5005364;28;20030;-57
2022/08/06 05:25:53;;;;;;;3.67;1.75;;;12.70;99.90;;;;;;5011405;28;20042;-58
2022/08/06 05:28:19;;;;;;;4.45;2.08;;;12.70;99.90;;;;;;5014807;28;20029;-57
2022/08/06 05:30:50;;;;;;;1.95;1.65;;;12.70;99.90;;;;;;5011571;28;20446;-59
2022/08/06 05:33:24;;;;;;;3.63;2.10;;;12.80;99.90;;;;;;5005153;28;20022;-57
2022/08/06 05:35:50;;;;;;;5.22;1.83;;;12.80;99.90;;;;;;5006172;28;20030;-57
2022/08/06 05:38:16;;;;;;;9.32;2.30;;;12.70;99.90;;;;;;5011390;28;20022;-57
2022/08/06 05:40:41;;;;;;;5.75;1.80;;;12.80;99.90;;;;;;5009136;28;20029;-57
2022/08/06 05:43:07;;;;;;;5.78;2.28;;;12.70;99.90;;;;;;5021120;28;20553;-57
2022/08/06 05:45:34;;;;;;;3.67;2.20;;;12.70;99.90;;;;;;5019858;28;20505;-58
2022/08/06 05:48:02;;;;;;;9.00;7.03;;;12.80;99.90;;;;;;5006642;28;20018;-57
2022/08/06 05:50:34;;;;;;;6.30;2.25;;;12.70;99.90;;;;;;5014076;28;20461;-58
2022/08/06 05:53:11;;;;;;;4.30;1.98;;;12.80;99.90;;;;;;5011715;28;20025;-57
2022/08/06 05:55:55;;;;;;;4.22;2.38;;;12.70;99.90;;;;;;5011030;28;20079;-58
2022/08/06 05:58:28;;;;;;;3.42;2.50;;;12.70;99.90;;;;;;5004538;28;20050;-58
2022/08/06 06:00:56;;;;;;;4.15;2.22;;;12.80;99.90;;;;;;5004943;28;20108;-58
2022/08/06 06:03:23;;;;;;;3.80;2.55;;;12.80;99.90;;;;;;5011989;28;20026;-58
2022/08/06 06:05:49;;;;;;;2.88;2.15;;;12.80;99.90;;;;;;5010096;28;20049;-58
2022/08/06 06:08:18;;;;;;;4.35;2.70;;;12.90;99.90;;;;;;5017420;28;20021;-56
2022/08/06 06:10:45;;;;;;;5.00;2.45;;;12.80;99.90;;;;;;5012617;28;20033;-57
2022/08/06 06:13:12;;;;;;;5.15;2.15;;;12.90;99.90;;;;;;5012351;28;20030;-58
2022/08/06 06:15:45;;;;;;;6.13;2.53;;;12.90;99.90;;;;;;5003606;28;20133;-60
2022/08/06 06:18:53;;;;;;;5.43;2.58;;;12.90;99.90;;;;;;5014414;28;20053;-57
2022/08/06 06:21:37;;;;;;;5.18;2.42;;;12.90;99.90;;;;;;4961718;28;20138;-58
2022/08/06 06:24:18;;;;;;;5.93;2.85;;;12.90;99.90;;;;;;4979084;28;20067;-57
2022/08/06 06:26:51;;;;;;;3.53;2.20;;;13.00;99.90;;;;;;4980722;28;20046;-57
2022/08/06 06:29:39;;;;;;;4.43;2.85;;;13.00;99.90;;;;;;4985750;28;20066;-57
2022/08/06 06:32:16;;;;;;;5.13;3.17;;;13.10;99.90;;;;;;4984625;28;20042;-58
2022/08/06 06:34:59;;;;;;;4.53;3.00;;;13.20;99.90;;;;;;4980122;28;20033;-57
2022/08/06 06:37:32;;;;;;;5.60;3.45;;;13.20;99.90;;;;;;4984538;28;20527;-57
2022/08/06 06:40:42;;;;;;;6.25;3.05;;;13.30;99.90;;;;;;4986396;28;20497;-57
2022/08/06 06:43:33;;;;;;;4.05;2.80;;;13.30;99.90;;;;;;4988711;28;20495;-58
2022/08/06 06:46:10;;;;;;;5.55;3.28;;;13.30;99.90;;;;;;4989348;28;20528;-57
2022/08/06 06:48:43;;;;;;;4.40;3.00;;;13.40;99.90;;;;;;4986443;28;20034;-57
2022/08/06 06:51:16;;;;;;;8.32;3.25;;;13.40;99.90;;;;;;4989601;28;20183;-57
2022/08/06 06:53:45;;;;;;;7.13;3.45;;;13.50;99.90;;;;;;4988163;28;20491;-58
2022/08/06 06:56:15;;;;;;;6.70;3.33;;;13.50;99.90;;;;;;4981440;28;20027;-58
2022/08/06 06:58:46;;;;;;;6.75;3.50;;;13.70;99.90;;;;;;5004023;28;20506;-57
2022/08/06 07:01:14;;;;;;;6.97;4.18;;;13.70;99.90;;;;;;5019759;28;20050;-57
2022/08/06 07:03:43;;;;;;;5.43;3.60;;;13.70;99.90;;;;;;5010478;28;20030;-57
2022/08/06 07:06:11;;;;;;;5.20;3.80;;;13.70;99.90;;;;;;5015324;28;20030;-57
2022/08/06 07:08:45;;;;;;;10.90;4.40;;;13.80;99.90;;;;;;5013252;28;20092;-58
2022/08/06 07:11:23;;;;;;;7.10;3.60;;;13.90;99.90;;;;;;5015238;28;20033;-57
2022/08/06 07:13:50;;;;;;;9.10;3.95;;;13.90;99.90;;;;;;5014022;28;20034;-58
2022/08/06 07:16:19;;;;;;;7.85;4.90;;;14.00;99.90;;;;;;5019306;28;20030;-58
2022/08/06 07:18:46;;;;;;;9.73;5.20;;;14.00;99.90;;;;;;5011696;28;20126;-59
2022/08/06 07:21:14;;;;;;;8.07;4.45;;;14.10;99.90;;;;;;5021439;28;20025;-59
2022/08/06 07:23:41;;;;;;;11.10;6.07;;;14.20;99.90;;;;;;5016301;28;20030;-58
2022/08/06 07:26:09;;;;;;;10.63;6.47;;;14.30;99.90;;;;;;5015009;28;20045;-57
2022/08/06 07:28:36;;;;;;;8.57;6.13;;;14.40;99.90;;;;;;5007936;28;20466;-58
2022/08/06 07:31:04;;;;;;;11.00;6.15;;;14.50;99.90;;;;;;5016152;28;20044;-57
2022/08/06 07:33:32;;;;;;;8.93;5.90;;;14.60;99.90;;;;;;5026157;28;20036;-58
2022/08/06 07:35:59;;;;;;;9.15;6.13;;;14.70;99.90;;;;;;5018386;28;20064;-58
2022/08/06 07:38:28;;;;;;;8.77;6.15;;;14.80;99.90;;;;;;5012736;28;20113;-57
2022/08/06 07:40:58;;;;;;;11.65;6.40;;;14.80;99.90;;;;;;5007891;28;20462;-57
2022/08/06 07:43:39;;;;;;;8.77;6.57;;;14.80;99.90;;;;;;5018732;28;20068;-58
2022/08/06 07:46:07;;;;;;;10.38;6.50;;;14.90;99.90;;;;;;5009656;28;20038;-57
2022/08/06 07:48:41;;;;;;;10.50;5.60;;;15.00;99.90;;;;;;5028711;28;20029;-57
2022/08/06 07:51:06;;;;;;;11.95;5.75;;;15.10;99.90;;;;;;5018591;28;20108;-58
2022/08/06 07:53:38;;;;;;;8.52;5.63;;;15.20;99.90;;;;;;5011667;28;20145;-58
2022/08/06 07:56:09;;;;;;;10.60;6.65;;;15.20;99.90;;;;;;5015278;28;20442;-58
2022/08/06 07:58:36;;;;;;;11.52;6.03;;;15.40;99.90;;;;;;5005962;28;20065;-58
2022/08/06 08:01:02;;;;;;;12.07;6.18;;;15.50;99.90;;;;;;5007114;28;20187;-58
2022/08/06 08:06:18;;;;;;;10.55;6.78;;;15.60;99.90;;;;;;5003686;28;20087;-59
2022/08/06 08:08:51;;;;;;;12.82;5.50;;;15.70;99.90;;;;;;5009366;28;20034;-58
2022/08/06 08:11:17;;;;;;;6.93;5.70;;;15.80;99.90;;;;;;5010029;28;20041;-57
2022/08/06 08:13:43;;;;;;;9.82;5.82;;;16.00;99.90;;;;;;5006976;28;20029;-57
2022/08/06 08:16:11;;;;;;;9.18;5.95;;;16.10;99.90;;;;;;5010671;28;20037;-57
2022/08/06 08:18:39;;;;;;;11.02;6.30;;;16.10;99.90;;;;;;5007314;28;20022;-59
2022/08/06 08:21:06;;;;;;;8.20;6.25;;;16.30;99.90;;;;;;5011892;28;20117;-58
2022/08/06 08:23:33;;;;;;;11.05;6.45;;;16.40;99.90;;;;;;5009258;28;20032;-57
2022/08/06 08:26:00;;;;;;;8.88;5.63;;;16.40;99.90;;;;;;5010301;28;20520;-57
2022/08/06 08:28:26;;;;;;;13.80;5.75;;;16.50;99.90;;;;;;5008353;28;20037;-57
2022/08/06 08:30:52;;;;;;;9.30;5.30;;;16.60;99.90;;;;;;5006342;28;20033;-57
2022/08/06 08:33:19;;;;;;;9.18;5.35;;;16.70;99.90;;;;;;5010025;28;20463;-58
2022/08/06 08:35:48;;;;;;;11.27;6.07;;;16.90;99.90;;;;;;5004280;28;20033;-58
2022/08/06 08:38:14;;;;;;;6.65;5.13;;;16.90;99.90;;;;;;5002565;28;20029;-57
2022/08/06 08:40:42;;;;;;;6.38;4.90;;;17.00;99.90;;;;;;5008155;28;20072;-58
2022/08/06 08:43:12;;;;;;;7.22;4.70;;;17.10;98.90;;;;;;5010238;28;20029;-57
2022/08/06 08:45:40;;;;;;;9.27;5.03;;;17.20;98.80;;;;;;5017674;28;20072;-57
2022/08/06 08:48:10;;;;;;;9.00;4.68;;;17.30;99.00;;;;;;5009919;28;20061;-57
2022/08/06 08:50:37;;;;;;;8.95;5.05;;;17.50;97.80;;;;;;5011627;28;20047;-59
2022/08/06 08:53:09;;;;;;;6.63;4.85;;;17.60;97.60;;;;;;5019755;28;20155;-58
2022/08/06 08:55:34;;;;;;;5.72;4.13;;;17.60;97.10;;;;;;5010249;28;20121;-58
2022/08/06 08:58:01;;;;;;;6.60;5.20;;;17.70;96.90;;;;;;5013064;28;20045;-57
2022/08/06 09:00:28;;;;;;;7.40;4.50;;;17.90;96.60;;;;;;5009918;28;20057;-58
2022/08/06 09:02:53;;;;;;;8.30;4.32;;;18.00;94.20;;;;;;5019805;28;20025;-58
2022/08/06 09:05:20;;;;;;;5.53;4.95;;;18.10;93.90;;;;;;5027013;28;20477;-58
2022/08/06 09:07:46;;;;;;;9.75;4.13;;;18.20;92.30;;;;;;5012511;28;20062;-57
2022/08/06 09:10:12;;;;;;;7.40;4.70;;;18.20;92.60;;;;;;5014158;28;20053;-59
2022/08/06 09:12:39;;;;;;;6.32;4.05;;;18.30;93.90;;;;;;5027729;28;20104;-58
2022/08/06 09:15:05;;;;;;;7.43;4.25;;;18.40;93.40;;;;;;5021770;28;20034;-57
2022/08/06 09:17:31;;;;;;;6.15;3.53;;;18.50;92.50;;;;;;5015221;28;20053;-57
2022/08/06 09:19:57;;;;;;;7.68;4.07;;;18.60;90.50;;;;;;5020300;28;20033;-59
2022/08/06 09:22:23;;;;;;;5.63;3.95;;;18.70;91.00;;;;;;5024946;28;20101;-58
2022/08/06 09:24:48;;;;;;;5.55;3.78;;;18.80;89.90;;;;;;5025478;28;20060;-57
2022/08/06 09:27:16;;;;;;;4.90;3.20;;;18.90;87.20;;;;;;5019055;28;20038;-58
2022/08/06 09:29:53;;;;;;;9.20;4.03;;;19.00;85.70;;;;;;5026087;28;20021;-58
2022/08/06 09:32:43;;;;;;;5.45;3.63;;;19.10;85.90;;;;;;5014738;28;20029;-58
2022/08/06 09:35:19;;;;;;;5.47;3.47;;;19.30;84.60;;;;;;5013296;28;20134;-59
2022/08/06 09:37:45;;;;;;;8.60;5.13;;;19.30;83.30;;;;;;5013374;28;20046;-59
2022/08/06 09:40:20;;;;;;;6.13;4.10;;;19.40;83.10;;;;;;5013885;28;20088;-59
2022/08/06 09:42:48;;;;;;;7.25;3.90;;;19.30;80.80;;;;;;5012866;28;20432;-59
2022/08/06 09:45:16;;;;;;;4.63;2.92;;;19.30;78.10;;;;;;5013360;28;20113;-58
2022/08/06 09:47:42;;;;;;;5.70;3.20;;;19.40;78.00;;;;;;5010078;28;20489;-59
2022/08/06 09:50:08;;;;;;;5.22;3.22;;;19.50;78.90;;;;;;5017699;28;20018;-59
2022/08/06 09:52:34;;;;;;;4.20;2.80;;;19.60;74.70;;;;;;5010580;28;20057;-59
2022/08/06 09:55:00;;;;;;;5.18;3.03;;;19.80;71.80;;;;;;5014515;28;20022;-58
2022/08/06 09:57:40;;;;;;;4.90;3.30;;;19.70;69.10;;;;;;5023968;28;20108;-57
2022/08/06 10:00:08;;;;;;;7.03;3.70;;;19.70;71.10;;;;;;5009463;28;20018;-58
2022/08/06 10:02:34;;;;;;;5.03;3.30;;;19.90;71.40;;;;;;5023814;28;20116;-59
2022/08/06 10:05:08;;;;;;;5.72;3.78;;;19.90;70.20;;;;;;5018518;28;20548;-59
2022/08/06 10:07:33;;;;;;;6.63;4.03;;;19.90;73.00;;;;;;5024638;28;20037;-59
2022/08/06 10:09:59;;;;;;;4.43;3.20;;;20.10;72.20;;;;;;5019110;28;20028;-60
2022/08/06 10:12:25;;;;;;;5.90;3.08;;;20.10;69.10;;;;;;5016266;28;20053;-59
2022/08/06 10:14:51;;;;;;;4.90;3.17;;;20.20;67.50;;;;;;5020396;28;20032;-59
2022/08/06 10:17:22;;;;;;;8.05;3.20;;;20.30;65.20;;;;;;5014026;28;20025;-59
2022/08/06 10:20:08;;;;;;;4.93;3.35;;;20.30;66.20;;;;;;5017310;28;21079;-59
2022/08/06 10:22:34;;;;;;;5.20;3.85;;;20.40;64.90;;;;;;5026706;28;20075;-58
2022/08/06 10:25:03;;;;;;;4.28;3.80;;;20.40;66.00;;;;;;5024621;28;20029;-58
2022/08/06 10:27:36;;;;;;;8.55;4.53;;;20.50;67.00;;;;;;5016034;28;20482;-58
2022/08/06 10:30:06;;;;;;;5.28;3.72;;;20.70;65.70;;;;;;5021460;28;20040;-58
2022/08/06 10:32:36;;;;;;;8.27;5.20;;;20.80;64.50;;;;;;5014966;28;20037;-58
2022/08/06 10:35:05;;;;;;;8.43;5.18;;;20.80;64.20;;;;;;5012167;28;20030;-59
2022/08/06 10:37:41;;;;;;;8.45;5.13;;;20.90;64.10;;;;;;5015339;28;20033;-59
2022/08/06 10:40:09;;;;;;;6.03;3.58;;;21.00;62.90;;;;;;5012455;28;20030;-59
2022/08/06 10:42:34;;;;;;;5.00;3.28;;;21.00;61.50;;;;;;5014429;28;20033;-59
2022/08/06 10:45:01;;;;;;;7.82;3.45;;;21.10;61.60;;;;;;5013728;28;20438;-59
2022/08/06 10:47:28;;;;;;;4.93;3.17;;;21.20;61.70;;;;;;5021618;28;20485;-59
2022/08/06 10:49:55;;;;;;;7.93;3.92;;;21.40;59.70;;;;;;5014422;28;20496;-59
2022/08/06 10:52:21;;;;;;;5.85;3.72;;;21.60;60.00;;;;;;5010487;28;20033;-61
2022/08/06 10:54:48;;;;;;;4.53;3.42;;;21.50;59.60;;;;;;5013007;28;20097;-58
2022/08/06 10:57:14;;;;;;;5.90;3.35;;;21.60;58.90;;;;;;5023397;28;20049;-59
2022/08/06 10:59:40;;;;;;;8.27;3.45;;;21.80;57.60;;;;;;5017457;28;20378;-59
2022/08/06 11:02:29;;;;;;;6.13;3.60;;;21.80;57.60;;;;;;5013690;28;20037;-59
2022/08/06 11:05:00;;;;;;;7.47;3.17;;;22.10;57.80;;;;;;5014942;28;20129;-59
2022/08/06 11:07:25;;;;;;;4.03;3.25;;;22.20;57.10;;;;;;5012359;28;20038;-59
2022/08/06 11:10:20;;;;;;;5.65;3.75;;;22.40;56.30;;;;;;5009195;28;20079;-58
2022/08/06 11:12:49;;;;;;;7.72;3.30;;;23.00;55.30;;;;;;5012964;28;20092;-59
2022/08/06 11:15:15;;;;;;;8.85;3.17;;;23.40;53.60;;;;;;5010810;28;20045;-57
2022/08/06 11:17:53;;;;;;;4.30;3.22;;;23.90;52.80;;;;;;5016276;28;20405;-58
2022/08/06 11:20:36;;;;;;;4.60;3.10;;;24.30;51.50;;;;;;5020435;28;20026;-58
2022/08/06 11:23:13;;;;;;;7.10;2.92;;;24.90;49.60;;;;;;5007007;28;20025;-58
2022/08/06 11:25:46;;;;;;;5.90;3.17;;;24.90;49.00;;;;;;4999825;28;20073;-58
2022/08/06 11:28:13;;;;;;;7.22;2.90;;;24.70;49.10;;;;;;5016858;28;20022;-58
2022/08/06 11:30:55;;;;;;;4.25;3.38;;;24.80;48.10;;;;;;5004728;28;20404;-58
2022/08/06 11:33:42;;;;;;;4.28;3.15;;;25.00;47.60;;;;;;5010575;28;20029;-59
2022/08/06 11:36:12;;;;;;;3.95;2.78;;;25.70;46.60;;;;;;5024784;28;20022;-60
2022/08/06 11:38:47;;;;;;;4.15;2.25;;;25.60;45.50;;;;;;5019160;28;20367;-59
2022/08/06 11:41:29;;;;;;;6.05;3.00;;;25.70;44.80;;;;;;5025494;28;20029;-59
2022/08/06 11:43:56;;;;;;;6.47;2.80;;;25.60;44.70;;;;;;5031000;28;20041;-58
2022/08/06 11:46:32;;;;;;;3.47;2.70;;;25.90;43.70;;;;;;5021682;28;20041;-58
2022/08/06 11:49:03;;;;;;;6.10;2.80;;;26.40;43.00;;;;;;5014643;28;20104;-59
2022/08/06 11:51:49;;;;;;;6.40;3.45;;;26.50;42.80;;;;;;5013509;28;20037;-59
2022/08/06 11:54:17;;;;;;;4.20;2.72;;;26.50;42.50;;;;;;5012307;28;20045;-60
2022/08/06 11:57:01;;;;;;;5.40;3.35;;;26.60;42.60;;;;;;5019531;28;20055;-59
2022/08/06 11:59:28;;;;;;;6.03;3.25;;;26.80;42.00;;;;;;5019981;28;20108;-59
2022/08/06 12:01:55;;;;;;;4.10;3.00;;;27.00;42.30;;;;;;5016017;28;20096;-59
2022/08/06 12:04:36;;;;;;;5.10;2.88;;;27.20;41.50;;;;;;5014156;28;20058;-59
2022/08/06 12:07:24;;;;;;;5.63;3.60;;;26.20;43.30;;;;;;5004243;28;20045;-59
2022/08/06 12:10:04;;;;;;;9.85;4.28;;;26.40;45.70;;;;;;5021994;28;20033;-59
2022/08/06 12:12:33;;;;;;;9.48;4.00;;;26.00;46.80;;;;;;5009136;28;20457;-58
2022/08/06 12:15:25;;;;;;;8.88;4.43;;;25.40;47.00;;;;;;5022947;28;20053;-59
2022/08/06 12:17:57;;;;;;;7.22;4.43;;;25.80;48.10;;;;;;5017176;28;20021;-59
2022/08/06 12:20:41;;;;;;;6.28;3.75;;;25.70;47.60;;;;;;5013836;28;20458;-58
2022/08/06 12:23:08;;;;;;;5.38;3.58;;;26.20;46.90;;;;;;5025003;28;20043;-59
2022/08/06 12:25:38;;;;;;;7.15;3.72;;;26.80;46.40;;;;;;5019504;28;20042;-59
2022/08/06 12:28:07;;;;;;;4.70;4.25;;;27.30;45.50;;;;;;5020633;28;20068;-59
2022/08/06 12:30:47;;;;;;;4.25;3.55;;;27.60;44.20;;;;;;5014018;28;20041;-59
2022/08/06 12:33:13;;;;;;;6.00;3.53;;;27.70;43.70;;;;;;5016622;28;20030;-59
2022/08/06 12:35:52;;;;;;;6.38;3.70;;;27.80;44.00;;;;;;5020956;28;20090;-59
2022/08/06 12:38:19;;;;;;;6.05;3.83;;;27.20;44.00;;;;;;5017116;28;20117;-59
2022/08/06 12:41:07;;;;;;;6.13;3.38;;;26.60;44.80;;;;;;5021515;28;20036;-59
2022/08/06 12:43:34;;;;;;;5.82;3.45;;;26.20;45.00;;;;;;5008888;28;20030;-59
2022/08/06 12:46:06;;;;;;;4.93;3.40;;;25.60;45.50;;;;;;5021534;28;20034;-59
2022/08/06 12:48:36;;;;;;;4.25;3.40;;;26.10;45.30;;;;;;5007791;28;20028;-59
2022/08/06 12:51:09;;;;;;;4.97;3.30;;;26.70;45.00;;;;;;5026236;28;20517;-58
2022/08/06 12:53:47;;;;;;;7.07;3.55;;;27.10;43.30;;;;;;4998159;28;20485;-58
2022/08/06 12:56:14;;;;;;;5.22;3.45;;;27.20;43.20;;;;;;5015865;28;20084;-58
2022/08/06 12:58:41;;;;;;;5.82;3.42;;;27.60;43.30;;;;;;5010630;28;20036;-59
2022/08/06 13:01:13;;;;;;;6.18;3.92;;;27.70;43.00;;;;;;5023571;28;20037;-59
2022/08/06 13:03:41;;;;;;;;;;;28.10;43.70;;;;;;5019444;28;20029;-59
2022/08/06 13:06:09;;;;;;;6.80;4.13;;;27.70;43.30;;;;;;5023907;28;20007;-59